Happy Valley, Oregon
Current Conditions -  °F | °C
As of 10:53 PM on Wednesday 22 Oct 2014 (Local Time) from KTTD Reporting Station
Light Rain Light Rain  
Wind Chill: 58°   Ceiling: 7000
Heat Index: 58°   Visibility: 10mi
Dew Point: 54°   Wind: 0mph
Humidity: 87%   Direction: NA
Pressure: 29.77"   Gusts: NA
Location:  45.45°N, 122.53°W
Report Text: KTTD 230553Z AUTO 00000KT 10SM -RA OVC070 14/12 A2977 RMK AO2 SLP080 P0002 60026 T01440122 10150 20133 51021
Loading
Personal Weather Stations






























Interactive Weather Map New forecast layout! Learn more

10-Day Weather Forecast

Advertisements
Track Severe Weather on mobile